Ethridge, Tennessee
Current Conditions -  °F | °C
As of 11:55 AM on Tuesday 21 Oct 2014 (Local Time) from KMRC Reporting Station
Clear Clear  
Wind Chill: 68°   Ceiling: Unl
Heat Index: 68°   Visibility: 9mi
Dew Point: 48°   Wind: 7mph
Humidity: 49%   Direction: 330°NNW
Pressure: 30.07"   Gusts: NA
Location:  35.32°N, 87.3°W
Report Text: KMRC 211655Z AUTO 33006KT 9SM CLR 20/09 A3007 RMK
Loading
Personal Weather Stations






























Interactive Weather Map New forecast layout! Learn more

10-Day Weather Forecast

Advertisements
Track Severe Weather on mobile